Latest Weather Observations for Warruwi

IDD60801

Issued at 10:01 pm CST Monday 6 July 2020 (issued every 10 minutes, with the page automatically refreshed every 10 minutes)

About weather observations | Map of weather stations | Latest weather observations for NT | Other Formats
Station Details ID: 014401 Name: WARRUWI AIRPORT Lat: -11.65 Lon: 133.38 Height: 19.2 m
Data from the previous 72 hours. | See also: Recent months at Warruwi
Date/Time
CST
Temp
°C
App
Temp
°C
Dew
Point
°C
Rel
Hum
%
Delta-T
°C
Wind Press
QNH
hPa
Press
MSL
hPa
Rain since
9am
mm
Dir  Spd
km/h
Gust
km/h
Spd
kts
Gust
kts
06/10:00pm 25.3 23.8 17.7 62 4.8 ESE 22 33 12 18 1015.8 1015.7 0.0
06/09:30pm 25.5 24.7 18.4 65 4.5 ESE 20 32 11 17 1015.7 1015.6 0.0
06/09:00pm 25.6 25.8 19.3 68 4.0 ESE 17 30 9 16 1015.5 1015.4 0.0
06/08:30pm 25.8 25.6 19.4 67 4.1 E 19 28 10 15 1015.2 1015.1 0.0
06/08:00pm 25.4 27.0 21.5 79 2.6 E 15 22 8 12 1015.0 1014.9 0.0
06/07:30pm 25.3 27.2 21.4 79 2.6 E 13 20 7 11 1014.7 1014.6 0.0
06/07:00pm 25.5 27.2 21.0 76 3.0 E 13 19 7 10 1014.4 1014.3 0.0
06/06:30pm 25.6 27.4 20.4 73 3.4 E 11 15 6 8 1014.2 1014.1 0.0
06/06:00pm 25.9 27.1 19.8 69 4.0 E 13 20 7 11 1013.8 1013.7 0.0
06/05:30pm 26.6 27.6 19.5 65 4.6 E 13 19 7 10 1013.5 1013.4 0.0
06/05:00pm 26.6 26.6 19.0 63 4.9 E 17 26 9 14 1013.2 1013.1 0.0
06/04:30pm 27.1 26.9 18.4 59 5.5 E 17 26 9 14 1013.0 1012.9 0.0
06/04:00pm 27.4 27.3 18.7 59 5.6 E 17 22 9 12 1012.9 1012.8 0.0
06/03:30pm 27.1 27.1 18.1 58 5.7 ENE 15 24 8 13 1012.9 1012.8 0.0
06/03:00pm 27.1 26.7 18.1 58 5.7 ENE 17 24 9 13 1013.0 1012.9 0.0
06/02:30pm 28.5 27.3 17.1 50 7.2 E 19 26 10 14 1013.1 1013.0 0.0
06/02:00pm 27.7 26.1 16.0 49 7.2 E 19 26 10 14 1013.5 1013.4 0.0
06/01:30pm 28.3 26.4 15.2 44 8.0 E 19 28 10 15 1013.9 1013.8 0.0
06/01:00pm 28.1 26.0 14.7 44 8.1 E 19 28 10 15 1014.0 1013.9 0.0
06/12:30pm 27.8 25.4 14.4 43 8.1 ESE 20 28 11 15 1014.5 1014.4 0.0
06/12:00pm 27.7 25.2 14.0 43 8.2 ESE 20 28 11 15 1014.9 1014.8 0.0
06/11:30am 27.5 24.8 13.4 41 8.3 ESE 20 28 11 15 1015.5 1015.4 0.0
06/11:00am 27.0 24.1 13.0 42 8.2 SE 20 28 11 15 1015.8 1015.7 0.0
06/10:30am 26.2 23.2 12.6 43 7.9 SE 20 30 11 16 1016.0 1015.9 0.0
06/10:00am 25.4 22.6 12.6 45 7.4 SE 19 28 10 15 1016.2 1016.1 0.0
06/09:30am 25.2 22.6 13.7 49 6.8 SE 20 32 11 17 1016.3 1016.2 0.0
06/09:00am 24.2 21.2 13.7 52 6.1 SE 22 33 12 18 1016.4 1016.3 0.0
06/08:30am 23.8 22.3 14.2 55 5.7 SE 15 28 8 15 1016.0 1015.9 0.0
06/08:00am 23.1 21.7 14.4 58 5.1 SE 15 26 8 14 1015.4 1015.3 0.0
06/07:30am 22.4 21.4 14.5 61 4.6 SE 13 22 7 12 1015.3 1015.2 0.0
06/07:00am 22.4 21.0 14.5 61 4.6 SE 15 26 8 14 1015.2 1015.1 0.0
06/06:30am 22.5 20.8 14.6 61 4.7 SE 17 28 9 15 1015.1 1015.0 0.0
06/06:00am 22.6 21.0 15.0 62 4.5 SE 17 28 9 15 1015.0 1014.9 0.0
06/05:30am 22.4 21.3 15.3 64 4.2 SE 15 24 8 13 1014.8 1014.7 0.0
06/05:00am 22.6 21.6 15.7 65 4.1 SE 15 20 8 11 1014.8 1014.7 0.0
06/04:30am 22.6 21.8 16.2 67 3.9 SE 15 24 8 13 1014.7 1014.6 0.0
06/04:00am 22.6 21.3 15.9 66 4.0 SE 17 28 9 15 1014.9 1014.8 0.0
06/03:30am 22.7 21.2 16.3 67 3.9 SE 19 26 10 14 1015.1 1015.0 0.0
06/03:00am 22.7 20.6 16.3 67 3.9 SE 22 32 12 17 1015.4 1015.3 0.0
06/02:30am 22.7 22.0 16.3 67 3.9 SE 15 26 8 14 1015.5 1015.4 0.0
06/02:00am 22.9 21.4 16.4 67 4.0 ESE 19 30 10 16 1015.7 1015.6 0.0
06/01:30am 23.1 21.5 16.4 66 4.1 SE 20 32 11 17 1016.1 1016.0 0.0
06/01:00am 23.4 21.9 16.7 66 4.1 ESE 20 32 11 17 1016.2 1016.1 0.0
06/12:30am 24.0 22.6 17.0 65 4.3 ESE 20 32 11 17 1016.3 1016.2 0.0
06/12:00am 24.3 22.2 16.3 61 4.9 SE 22 33 12 18 1016.1 1016.0 0.0
 
Date/Time
CST
Temp
°C
App
Temp
°C
Dew
Point
°C
Rel
Hum
%
Delta-T
°C
Wind Press
QNH
hPa
Press
MSL
hPa
Rain since
9am
mm
Dir  Spd
km/h
Gust
km/h
Spd
kts
Gust
kts
05/11:30pm 24.7 22.7 16.4 60 5.1 ESE 22 37 12 20 1016.0 1015.9 0.0
05/11:00pm 25.1 24.1 16.5 59 5.3 ESE 17 28 9 15 1015.8 1015.7 0.0
05/10:30pm 25.6 23.3 16.7 58 5.5 ESE 24 33 13 18 1015.4 1015.3 0.0
05/10:00pm 26.0 24.6 17.1 58 5.5 ESE 20 33 11 18 1015.3 1015.2 0.0
05/09:30pm 26.2 25.5 17.3 58 5.6 ESE 17 28 9 15 1015.0 1014.9 0.0
05/09:00pm 26.1 24.8 17.2 58 5.5 ESE 20 30 11 16 1014.7 1014.6 0.0
05/08:30pm 26.6 26.1 17.9 59 5.5 ESE 17 22 9 12 1014.2 1014.1 0.0
05/08:00pm 26.9 26.8 17.9 57 5.7 ESE 15 24 8 13 1013.9 1013.8 0.0
05/07:30pm 27.1 26.7 18.1 58 5.7 ESE 17 24 9 13 1013.6 1013.5 0.0
05/07:00pm 26.4 27.5 21.2 73 3.4 E 17 24 9 13 1013.2 1013.1 0.0
05/06:30pm 26.3 27.2 20.8 71 3.6 E 17 26 9 14 1013.1 1013.0 0.0
05/06:00pm 26.3 27.3 20.2 69 4.0 E 15 22 8 12 1012.7 1012.6 0.0
05/05:30pm 26.5 27.5 19.4 65 4.6 E 13 22 7 12 1012.3 1012.2 0.0
05/05:00pm 26.8 27.4 19.4 64 4.8 ENE 15 24 8 13 1012.1 1012.0 0.0
05/04:30pm 26.8 27.0 18.6 60 5.2 ENE 15 28 8 15 1012.0 1011.9 0.0
05/04:00pm 27.4 27.0 18.1 57 5.9 ENE 17 26 9 14 1011.9 1011.8 0.0
05/03:30pm 27.3 26.9 18.0 56 5.9 ENE 17 28 9 15 1012.0 1011.9 0.0
05/03:00pm 27.9 27.1 18.0 55 6.3 E 19 32 10 17 1012.1 1012.0 0.0
05/02:30pm 27.4 26.2 17.6 55 6.2 E 20 28 11 15 1012.6 1012.5 0.0
05/02:00pm 27.4 26.5 17.8 55 6.1 E 19 28 10 15 1012.9 1012.8 0.0
05/01:30pm 28.8 27.2 16.4 47 7.7 E 20 30 11 16 1013.2 1013.1 0.0
05/01:00pm 28.6 27.2 16.5 48 7.5 E 19 24 10 13 1013.7 1013.6 0.0
05/12:30pm 28.2 25.8 14.4 42 8.3 ESE 20 30 11 16 1014.2 1014.1 0.0
05/12:00pm 28.5 25.6 14.0 41 8.7 ESE 22 33 12 18 1014.7 1014.6 0.0
05/11:30am 27.6 23.9 13.9 43 8.2 ESE 26 37 14 20 1015.0 1014.9 0.0
05/11:00am 26.7 22.6 13.8 45 7.6 E 28 39 15 21 1015.4 1015.3 0.0
05/10:30am 26.8 23.7 14.5 46 7.4 ESE 24 37 13 20 1015.5 1015.4 0.0
05/10:00am 26.0 22.0 14.1 47 7.1 ESE 28 43 15 23 1015.6 1015.5 0.0
05/09:30am 24.9 20.1 14.1 51 6.4 ESE 32 50 17 27 1015.8 1015.7 0.0
05/09:22am 25.1 21.3 14.6 52 6.3 ESE 28 46 15 25 1015.6 1015.5 0.0
05/09:00am 24.6 20.5 15.0 55 5.7 ESE 30 44 16 24 1015.6 1015.5 0.0
05/08:37am 23.9 20.0 14.3 55 5.7 ESE 28 48 15 26 1015.5 1015.4 0.0
05/08:30am 23.9 19.7 14.6 56 5.5 ESE 30 43 16 23 1015.4 1015.3 0.0
05/08:00am 23.4 20.0 14.7 58 5.2 ESE 26 39 14 21 1015.4 1015.3 0.0
05/07:30am 22.3 18.7 14.2 60 4.7 ESE 26 41 14 22 1015.3 1015.2 0.0
05/07:02am 22.3 18.2 13.9 59 4.9 ESE 28 50 15 27 1015.1 1015.0 0.0
05/07:00am 22.3 18.6 13.9 59 4.9 ESE 26 43 14 23 1015.1 1015.0 0.0
05/06:30am 22.6 18.7 14.4 60 4.8 ESE 28 46 15 25 1014.7 1014.6 0.0
05/06:00am 22.7 19.2 14.5 60 4.8 ESE 26 41 14 22 1014.5 1014.4 0.0
05/05:30am 22.6 18.4 14.7 61 4.7 ESE 30 44 16 24 1014.4 1014.3 0.0
05/05:00am 22.4 19.2 15.3 64 4.2 ESE 26 41 14 22 1014.5 1014.4 0.0
05/04:30am 22.5 20.2 15.8 66 4.0 ESE 22 37 12 20 1014.7 1014.6 0.0
05/04:00am 22.4 19.7 15.7 66 4.0 ESE 24 39 13 21 1015.0 1014.9 0.0
05/03:30am 22.6 19.4 15.2 63 4.4 ESE 26 37 14 20 1015.2 1015.1 0.0
05/03:00am 22.9 20.0 15.0 61 4.7 ESE 24 39 13 21 1015.7 1015.6 0.0
05/02:30am 23.2 20.1 14.5 58 5.1 ESE 24 37 13 20 1016.0 1015.9 0.0
05/02:00am 23.6 19.9 14.0 55 5.6 ESE 26 35 14 19 1016.2 1016.1 0.0
05/01:30am 23.9 21.2 14.6 56 5.5 ESE 22 32 12 17 1016.3 1016.2 0.0
05/01:00am 24.2 21.0 14.3 54 5.9 ESE 24 35 13 19 1016.2 1016.1 0.0
05/12:30am 24.3 22.0 15.8 59 5.1 SE 22 35 12 19 1016.2 1016.1 0.0
05/12:00am 24.4 22.2 16.9 63 4.6 SE 24 35 13 19 1016.2 1016.1 0.0
 
Date/Time
CST
Temp
°C
App
Temp
°C
Dew
Point
°C
Rel
Hum
%
Delta-T
°C
Wind Press
QNH
hPa
Press
MSL
hPa
Rain since
9am
mm
Dir  Spd
km/h
Gust
km/h
Spd
kts
Gust
kts
04/11:30pm 24.6 23.1 16.8 62 4.8 SE 20 33 11 18 1016.4 1016.3 0.0
04/11:00pm 24.9 23.7 17.4 63 4.7 SE 20 30 11 16 1016.7 1016.6 0.0
04/10:30pm 25.3 23.1 17.0 60 5.1 ESE 24 35 13 19 1016.5 1016.4 0.0
04/10:00pm 25.7 23.3 16.5 56 5.7 ESE 24 35 13 19 1016.4 1016.3 0.0
04/09:30pm 26.1 23.5 16.9 57 5.7 ESE 26 39 14 21 1016.0 1015.9 0.0
04/09:00pm 26.5 25.0 17.6 58 5.6 ESE 22 33 12 18 1015.5 1015.4 0.0
04/08:30pm 26.6 26.6 19.0 63 4.9 ESE 17 28 9 15 1015.0 1014.9 0.0
04/08:00pm 26.8 26.8 19.7 65 4.6 ESE 19 28 10 15 1014.5 1014.4 0.0
04/07:30pm 26.5 26.9 21.0 72 3.6 E 20 28 11 15 1014.2 1014.1 0.0
04/07:00pm 26.6 27.0 20.7 70 3.9 E 19 30 10 16 1014.1 1014.0 0.0
04/06:30pm 26.6 27.4 21.4 73 3.5 E 19 26 10 14 1013.8 1013.7 0.0
04/06:00pm 26.8 27.8 21.1 71 3.8 E 17 30 9 16 1013.5 1013.4 0.0
04/05:30pm 27.4 28.8 21.0 68 4.2 ENE 15 24 8 13 1013.2 1013.1 0.0
04/05:00pm 27.9 28.7 20.7 65 4.8 E 17 24 9 13 1013.0 1012.9 0.0
04/04:30pm 28.7 28.6 19.9 59 5.8 E 20 28 11 15 1013.0 1012.9 0.0
04/04:00pm 28.9 29.0 19.2 55 6.3 E 17 24 9 13 1013.1 1013.0 0.0
04/03:30pm 29.5 29.6 19.2 54 6.7 E 17 24 9 13 1013.2 1013.1 0.0
04/03:00pm 30.2 29.2 18.0 48 7.8 E 20 32 11 17 1013.1 1013.0 0.0
04/02:30pm 30.0 28.7 18.1 49 7.6 E 22 28 12 15 1013.5 1013.4 0.0
04/02:00pm 30.3 28.7 17.4 46 8.2 E 22 33 12 18 1013.9 1013.8 0.0
04/01:30pm 30.4 28.8 17.5 46 8.2 ESE 22 33 12 18 1014.4 1014.3 0.0
04/01:00pm 30.7 29.2 16.7 43 8.8 ESE 20 33 11 18 1014.8 1014.7 0.0
04/12:30pm 29.9 27.9 17.4 47 7.9 E 24 35 13 19 1015.3 1015.2 0.0
04/12:00pm 29.9 27.7 17.0 45 8.1 ESE 24 39 13 21 1015.7 1015.6 0.0
04/11:30am 29.3 27.1 16.8 47 7.8 ESE 24 35 13 19 1016.0 1015.9 0.0
04/11:00am 29.0 26.4 16.9 48 7.6 ESE 26 37 14 20 1016.2 1016.1 0.0
04/10:30am 28.2 25.7 17.1 51 7.0 ESE 26 39 14 21 1016.4 1016.3 0.0
04/10:00am 27.2 24.4 17.4 55 6.2 ESE 28 39 15 21 1016.6 1016.5 0.0
04/09:30am 26.4 23.7 17.5 58 5.6 ESE 28 44 15 24 1016.6 1016.5 0.0
04/09:00am 25.6 23.6 18.3 64 4.6 ESE 26 39 14 21 1016.5 1016.4 -
04/08:30am 24.8 23.6 19.2 71 3.6 ESE 24 35 13 19 1016.0 1015.9 -
04/08:00am 24.1 23.7 19.4 75 3.0 ESE 20 32 11 17 1015.6 1015.5 -
04/07:30am 23.4 22.5 19.1 77 2.7 ESE 22 32 12 17 1015.4 1015.3 -
04/07:00am 23.2 22.7 19.2 78 2.5 ESE 20 30 11 16 1015.3 1015.2 -
04/06:30am 23.2 23.1 19.6 80 2.3 ESE 19 28 10 15 1015.3 1015.2 -
04/06:00am 23.1 23.4 19.5 80 2.3 ESE 17 30 9 16 1015.2 1015.1 -
04/05:30am 23.1 23.4 19.7 81 2.2 ESE 17 24 9 13 1014.9 1014.8 -
04/05:00am 23.1 23.8 19.7 81 2.2 ESE 15 22 8 12 1014.9 1014.8 -
04/04:30am 23.2 24.4 19.8 81 2.2 SE 13 24 7 13 1015.0 1014.9 -
04/04:00am 23.4 24.6 19.8 80 2.3 SE 13 24 7 13 1015.2 1015.1 -
04/03:30am 23.8 24.1 19.5 77 2.8 ESE 17 26 9 14 1015.5 1015.4 -
04/03:00am 24.2 24.0 19.3 74 3.1 ESE 19 32 10 17 1015.9 1015.8 -
04/02:30am 24.4 24.1 19.2 73 3.3 ESE 19 28 10 15 1016.1 1016.0 0.0
04/02:00am 24.7 24.5 19.3 72 3.5 ESE 19 24 10 13 1016.3 1016.2 0.0
04/01:30am 24.9 25.3 19.1 70 3.7 ESE 15 26 8 14 1016.6 1016.5 0.0
04/01:00am 25.3 25.3 19.0 68 4.0 ESE 17 26 9 14 1016.7 1016.6 0.0
04/12:30am 25.5 24.9 18.9 67 4.2 ESE 20 32 11 17 1016.9 1016.8 0.0
04/12:00am 25.8 25.5 19.2 67 4.2 ESE 19 32 10 17 1016.8 1016.7 0.0
 
Date/Time
CST
Temp
°C
App
Temp
°C
Dew
Point
°C
Rel
Hum
%
Delta-T
°C
Wind Press
QNH
hPa
Press
MSL
hPa
Rain since
9am
mm
Dir  Spd
km/h
Gust
km/h
Spd
kts
Gust
kts
03/11:30pm 25.9 25.6 19.5 68 4.1 ESE 20 30 11 16 1016.7 1016.6 0.0
03/11:00pm 26.3 26.1 19.7 67 4.3 ESE 20 30 11 16 1016.6 1016.5 0.0
03/10:30pm 26.1 27.2 21.3 75 3.2 ESE 17 28 9 15 1016.5 1016.4 0.0

Other formats

Comma delimited format used in spreadsheet applications
http://www.bom.gov.au/fwo/IDD60801/IDD60801.94139.axf

JavaScript Object Notation format (JSON) in row-major order
http://www.bom.gov.au/fwo/IDD60801/IDD60801.94139.json

Data quality

Most of these data are generated automatically and are frequently updated. Quality checks on data are not normally performed. It is possible for incorrect values to appear. Refer to information at About Latest Weather Observations and please check the disclaimer before using these data.